Terminal Aerodrome Forecast
Issued by NWS Detroit/Pontiac, MI

Home | Current Version | Previous Version | Text Only | Print | Product List | Glossary On
Versions: 1 2 3 4 5 6 7 8 9 10 11 12 13 14 15 16 17 18 19 20 21 22 23 24 25 26 27 28 29
000
FTUS43 KDTX 240312 AAA
TAFDTW
TAF AMD
KDTW 240312Z 2403/2506 09005KT P6SM SCT100 OVC250
     FM241000 18005KT 4SM -SHRA BR OVC080
      TEMPO 2411/2415 2SM TSRA OVC035CB
     FM241500 22013KT 6SM -SHRA BKN040 OVC080
     FM241900 22013G20KT P6SM SCT050 BKN100
     FM250100 20007KT P6SM SCT250=

USA.gov is the U.S. government's official web portal to all federal, state and local government web resources and services.